| time (UTC) | temp F | wind direction | speed knots | gust knots | rain 1hr in | rain 24hr in | rain mn in | humidity % | barometer mb |
| 20260507101507 | 47 | 179 | 1.7 | 5.2 | 0.00 | 0.00 | 0.00 | 58 | 1014.5 |
| 20260507100002 | 48 | 179 | 1.7 | 4.3 | 0.00 | 0.00 | 0.00 | 57 | 1014.6 |
| 20260507094502 | 47 | 179 | 2.6 | 4.3 | 0.00 | 0.00 | 0.00 | 57 | 1014.6 |
| 20260507093102 | 47 | 179 | 2.6 | 5.2 | 0.00 | 0.00 | 0.00 | 59 | 1014.8 |
| 20260507091546 | 47 | 179 | 2.6 | 4.3 | 0.00 | 0.00 | 0.00 | 60 | 1014.8 |
| 20260507090046 | 47 | 179 | 1.7 | 4.3 | 0.00 | 0.00 | 0.00 | 60 | 1015.0 |
| 20260507084542 | 47 | 179 | 1.7 | 3.5 | 0.00 | 0.00 | 0.00 | 60 | 1015.1 |
| 20260507083041 | 47 | 179 | 2.6 | 4.3 | 0.00 | 0.00 | 0.00 | 59 | 1015.3 |
| 20260507081545 | 47 | 179 | 2.6 | 5.2 | 0.00 | 0.00 | 0.00 | 58 | 1015.3 |
| 20260507074539 | 47 | 179 | 1.7 | 3.5 | 0.00 | 0.00 | 0.00 | 57 | 1015.3 |
| 20260507073037 | 47 | 179 | 2.6 | 5.2 | 0.00 | 0.00 | 0.00 | 56 | 1015.4 |
| 20260507071537 | 47 | 179 | 1.7 | 4.3 | 0.00 | 0.00 | 0.00 | 56 | 1015.5 |
| 20260507064542 | 47 | 179 | 0.9 | 3.5 | 0.00 | 0.00 | 0.00 | 55 | 1015.7 |
| 20260507063038 | 48 | 179 | 0.9 | 3.5 | 0.00 | 0.00 | 0.00 | 54 | 1015.8 |
| 20260507061536 | 48 | 179 | 1.7 | 4.3 | 0.00 | 0.00 | 0.00 | 52 | 1015.5 |
| 20260507060006 | 48 | 179 | 1.7 | 2.6 | 0.00 | 0.00 | 0.00 | 53 | 1015.5 |
| 20260507054505 | 48 | 179 | 1.7 | 2.6 | 0.00 | 0.00 | 0.00 | 56 | 1015.3 |
| 20260507053005 | 48 | 179 | 1.7 | 4.3 | 0.00 | 0.00 | 0.00 | 57 | 1015.5 |
| 20260507051552 | 48 | 179 | 1.7 | 4.3 | 0.00 | 0.00 | 0.00 | 58 | 1015.7 |
| 20260507050055 | 49 | 179 | 0.9 | 3.5 | 0.00 | 0.00 | 0.00 | 58 | 1015.8 |
| 20260507044548 | 49 | 179 | 0.9 | 3.5 | 0.00 | 0.00 | 0.00 | 57 | 1015.6 |
| 20260507043048 | 49 | 179 | 0.9 | 3.5 | 0.00 | 0.00 | 0.00 | 57 | 1015.4 |
| 20260507041547 | 49 | 179 | 1.7 | 4.3 | 0.00 | 0.00 | 0.00 | 59 | 1015.4 |
| 20260507040042 | 49 | 179 | 1.7 | 4.3 | 0.00 | 0.00 | 0.00 | 61 | 1015.1 |
| 20260507034551 | 49 | 179 | 1.7 | 4.3 | 0.00 | 0.00 | 0.00 | 63 | 1015.0 |
| 20260507033056 | 49 | 179 | 1.7 | 3.5 | 0.00 | 0.00 | 0.00 | 67 | 1015.1 |
| 20260507031522 | 50 | 179 | 0.9 | 2.6 | 0.00 | 0.00 | 0.00 | 75 | 1014.9 |
| 20260507030022 | 51 | 179 | 0.0 | 1.7 | 0.00 | 0.00 | 0.00 | 74 | 1014.9 |
| 20260507024516 | 52 | 179 | 0.9 | 1.7 | 0.00 | 0.00 | 0.00 | 72 | 1014.8 |
| 20260507023013 | 53 | 179 | 0.0 | 0.9 | 0.00 | 0.00 | 0.00 | 70 | 1014.7 |
| 20260507021510 | 53 | 179 | 0.0 | 0.0 | 0.00 | 0.00 | 0.00 | 69 | 1014.6 |
| 20260507020007 | 54 | 179 | 0.0 | 1.7 | 0.00 | 0.00 | 0.00 | 66 | 1014.6 |
| 20260507014503 | 56 | 179 | 0.0 | 0.0 | 0.00 | 0.00 | 0.00 | 63 | 1014.6 |
| 20260507013116 | 57 | 179 | 0.0 | 1.7 | 0.00 | 0.00 | 0.00 | 61 | 1014.5 |
| 20260507011545 | 58 | 179 | 0.0 | 2.6 | 0.00 | 0.00 | 0.00 | 58 | 1014.6 |
| 20260507010043 | 58 | 179 | 0.0 | 5.2 | 0.00 | 0.00 | 0.00 | 57 | 1014.5 |
| 20260507004541 | 58 | 179 | 0.9 | 4.3 | 0.00 | 0.00 | 0.00 | 57 | 1014.4 |
| 20260507003039 | 59 | 179 | 0.0 | 4.3 | 0.00 | 0.00 | 0.00 | 55 | 1014.4 |
| 20260507001558 | 59 | 179 | 0.9 | 6.1 | 0.00 | 0.00 | 0.00 | 55 | 1014.4 |
| 20260507000032 | 59 | 179 | 0.9 | 5.2 | 0.00 | 0.00 | 0.00 | 55 | 1014.4 |
| 20260506234544 | 61 | 179 | 0.9 | 6.1 | 0.00 | 0.00 | 0.00 | 52 | 1014.3 |
| 20260506233028 | 61 | 179 | 0.9 | 3.5 | 0.00 | 0.00 | 0.00 | 52 | 1014.4 |
| 20260506231510 | 61 | 179 | 1.7 | 7.0 | 0.00 | 0.00 | 0.00 | 52 | 1014.5 |
| 20260506230010 | 62 | 179 | 1.7 | 5.2 | 0.00 | 0.00 | 0.00 | 51 | 1014.6 |
| 20260506224611 | 61 | 179 | 1.7 | 7.8 | 0.00 | 0.00 | 0.00 | 52 | 1014.5 |
| 20260506223058 | 61 | 179 | 2.6 | 6.1 | 0.00 | 0.00 | 0.00 | 51 | 1014.7 |
| 20260506221552 | 62 | 179 | 3.5 | 7.8 | 0.00 | 0.00 | 0.00 | 50 | 1014.9 |
| 20260506214545 | 61 | 179 | 0.9 | 5.2 | 0.00 | 0.00 | 0.00 | 51 | 1015.2 |
| 20260506213042 | 60 | 179 | 3.5 | 7.0 | 0.00 | 0.00 | 0.00 | 50 | 1015.5 |
| 20260506211550 | 60 | 179 | 1.7 | 6.1 | 0.00 | 0.00 | 0.00 | 51 | 1015.6 |
| 20260506210039 | 60 | 179 | 2.6 | 6.1 | 0.00 | 0.00 | 0.00 | 50 | 1015.7 |
| 20260506204528 | 59 | 179 | 0.9 | 3.5 | 0.00 | 0.00 | 0.00 | 53 | 1015.8 |
| 20260506203028 | 60 | 179 | 0.9 | 4.3 | 0.00 | 0.00 | 0.00 | 52 | 1016.0 |
| 20260506201525 | 59 | 179 | 1.7 | 4.3 | 0.00 | 0.00 | 0.00 | 51 | 1016.1 |
| 20260506200021 | 57 | 179 | 0.9 | 3.5 | 0.00 | 0.00 | 0.00 | 59 | 1016.2 |
| 20260506194531 | 56 | 179 | 0.9 | 4.3 | 0.00 | 0.00 | 0.00 | 61 | 1016.4 |
| 20260506193019 | 56 | 179 | 0.9 | 3.5 | 0.00 | 0.00 | 0.00 | 58 | 1016.3 |
| 20260506191518 | 56 | 179 | 0.9 | 6.1 | 0.00 | 0.00 | 0.00 | 57 | 1016.3 |
| 20260506190018 | 56 | 179 | 1.7 | 4.3 | 0.00 | 0.00 | 0.00 | 56 | 1016.5 |
| 20260506184503 | 56 | 179 | 0.0 | 3.5 | 0.00 | 0.00 | 0.00 | 57 | 1016.5 |
| 20260506183003 | 55 | 179 | 0.9 | 2.6 | 0.00 | 0.00 | 0.00 | 57 | 1016.7 |
| 20260506181502 | 54 | 179 | 0.0 | 2.6 | 0.00 | 0.00 | 0.00 | 56 | 1016.8 |
| 20260506180001 | 55 | 179 | 0.9 | 3.5 | 0.00 | 0.00 | 0.00 | 54 | 1016.7 |
| 20260506174601 | 56 | 179 | 1.7 | 4.3 | 0.00 | 0.00 | 0.00 | 51 | 1016.4 |
| 20260506173127 | 55 | 179 | 0.9 | 5.2 | 0.00 | 0.00 | 0.00 | 53 | 1016.6 |
| 20260506171602 | 55 | 179 | 0.9 | 2.6 | 0.00 | 0.00 | 0.00 | 52 | 1016.5 |
| 20260506170104 | 55 | 179 | 0.9 | 3.5 | 0.00 | 0.00 | 0.00 | 48 | 1016.3 |
| 20260506164542 | 55 | 179 | 0.9 | 2.6 | 0.00 | 0.00 | 0.00 | 48 | 1016.3 |
| 20260506163042 | 55 | 179 | 1.7 | 6.1 | 0.00 | 0.00 | 0.00 | 47 | 1016.2 |
| 20260506161538 | 54 | 179 | 0.0 | 1.7 | 0.00 | 0.00 | 0.00 | 53 | 1016.0 |
| 20260506160039 | 53 | 179 | 0.0 | 1.7 | 0.00 | 0.00 | 0.00 | 51 | 1016.2 |
| 20260506154531 | 52 | 179 | 0.0 | 1.7 | 0.00 | 0.00 | 0.00 | 58 | 1016.3 |
| 20260506153028 | 51 | 179 | 0.0 | 0.9 | 0.00 | 0.00 | 0.00 | 65 | 1016.1 |
| 20260506151523 | 49 | 179 | 0.9 | 1.7 | 0.00 | 0.00 | 0.00 | 70 | 1016.2 |
| 20260506150019 | 46 | 179 | 0.9 | 4.3 | 0.00 | 0.00 | 0.00 | 73 | 1016.2 |
| 20260506144507 | 42 | 179 | 0.9 | 2.6 | 0.00 | 0.00 | 0.00 | 80 | 1016.3 |
| 20260506143008 | 40 | 178 | 1.7 | 2.6 | 0.00 | 0.00 | 0.00 | 82 | 1016.3 |
| 20260506141505 | 39 | 179 | 1.7 | 2.6 | 0.00 | 0.00 | 0.00 | 81 | 1016.2 |
| 20260506140005 | 39 | 179 | 1.7 | 3.5 | 0.00 | 0.00 | 0.00 | 82 | 1016.1 |
| 20260506134503 | 39 | 179 | 0.9 | 3.5 | 0.00 | 0.00 | 0.00 | 81 | 1015.9 |
| 20260506133001 | 38 | 179 | 1.7 | 2.6 | 0.00 | 0.00 | 0.00 | 83 | 1015.6 |
| 20260506131605 | 38 | 179 | 1.7 | 3.5 | 0.00 | 0.00 | 0.00 | 82 | 1015.4 |
| 20260506124542 | 37 | 179 | 0.9 | 3.5 | 0.00 | 0.00 | 0.00 | 83 | 1015.2 |
| 20260506123040 | 37 | 179 | 1.7 | 3.5 | 0.00 | 0.00 | 0.00 | 83 | 1015.1 |
| 20260506121529 | 36 | 179 | 1.7 | 4.3 | 0.00 | 0.00 | 0.00 | 84 | 1015.1 |
| 20260506120029 | 36 | 179 | 0.9 | 3.5 | 0.00 | 0.00 | 0.00 | 84 | 1015.0 |
| 20260506114528 | 35 | 179 | 1.7 | 3.5 | 0.00 | 0.00 | 0.00 | 85 | 1015.1 |
| 20260506113027 | 35 | 179 | 0.9 | 3.5 | 0.00 | 0.00 | 0.00 | 84 | 1015.1 |
| 20260506111524 | 35 | 179 | 0.9 | 2.6 | 0.00 | 0.00 | 0.00 | 84 | 1015.0 |
| 20260506110025 | 34 | 179 | 0.9 | 4.3 | 0.00 | 0.00 | 0.00 | 84 | 1015.0 |
| 20260506104523 | 34 | 179 | 0.0 | 2.6 | 0.00 | 0.00 | 0.00 | 84 | 1015.0 |
| 20260506103034 | 34 | 179 | 0.0 | 1.7 | 0.00 | 0.00 | 0.00 | 85 | 1014.9 |